createdAt,value
2023-02-24T00:00:40.786Z,4.95
2023-02-24T00:01:40.804Z,4.92
2023-02-24T00:02:40.888Z,4.83
2023-02-24T00:03:40.929Z,4.79
2023-02-24T00:04:40.931Z,4.76
2023-02-24T00:05:40.997Z,4.72
2023-02-24T00:06:41.044Z,4.65
2023-02-24T00:07:41.090Z,4.80
2023-02-24T00:08:41.105Z,4.80
2023-02-24T00:09:41.134Z,4.67
2023-02-24T00:10:41.210Z,4.75
2023-02-24T00:11:41.254Z,4.72
2023-02-24T00:12:41.306Z,4.72
2023-02-24T00:13:41.304Z,4.79
2023-02-24T00:14:41.364Z,4.76
2023-02-24T00:15:41.384Z,4.65
2023-02-24T00:16:41.555Z,4.70
2023-02-24T00:17:41.506Z,4.67
2023-02-24T00:18:41.520Z,4.69
2023-02-24T00:19:41.555Z,4.57
2023-02-24T00:20:41.604Z,4.50
2023-02-24T00:21:41.643Z,4.51
2023-02-24T00:22:41.725Z,4.47
2023-02-24T00:23:42.559Z,4.52
2023-02-24T00:24:41.798Z,4.54
2023-02-24T00:25:41.844Z,4.47
2023-02-24T00:26:41.854Z,4.46
2023-02-24T00:27:41.894Z,4.51
2023-02-24T00:28:41.951Z,4.37
2023-02-24T00:29:42.237Z,4.51
2023-02-24T00:30:42.117Z,4.51
2023-02-24T00:31:42.292Z,4.46
2023-02-24T00:32:42.230Z,4.37
2023-02-24T00:33:42.159Z,4.46
2023-02-24T00:34:42.212Z,4.39
2023-02-24T00:35:42.278Z,4.37
2023-02-24T00:36:42.294Z,4.43
2023-02-24T00:37:42.330Z,4.37
2023-02-24T00:38:42.368Z,4.26
2023-02-24T00:39:42.424Z,4.34
2023-02-24T00:40:42.480Z,4.36
2023-02-24T00:41:42.512Z,4.29
2023-02-24T00:42:42.546Z,4.29
2023-02-24T00:43:42.602Z,4.29
2023-02-24T00:44:42.630Z,4.22
2023-02-24T00:45:42.713Z,4.25
2023-02-24T00:46:42.720Z,4.26
2023-02-24T00:47:42.769Z,4.15
2023-02-24T00:48:42.804Z,4.28
2023-02-24T00:49:43.220Z,4.08
2023-02-24T00:50:42.916Z,4.15
2023-02-24T00:51:42.928Z,4.01
2023-02-24T00:52:42.967Z,4.03
2023-02-24T00:53:43.028Z,4.04
2023-02-24T00:54:43.056Z,4.03
2023-02-24T00:55:43.125Z,4.03
2023-02-24T01:15:07.537Z,3.98
2023-02-24T01:16:06.987Z,4.00
2023-02-24T01:17:06.969Z,3.94
2023-02-24T01:18:07.011Z,4.00
2023-02-24T01:19:07.062Z,3.98
2023-02-24T01:20:07.131Z,3.90
2023-02-24T01:21:07.162Z,3.97
2023-02-24T01:22:07.173Z,4.04
2023-02-24T01:23:07.289Z,4.01
2023-02-24T01:24:07.252Z,4.01
2023-02-24T01:25:07.343Z,3.88
2023-02-24T01:26:07.342Z,3.89
2023-02-24T01:27:07.417Z,3.96
2023-02-24T01:28:07.449Z,3.79
2023-02-24T01:29:07.476Z,3.85
2023-02-24T01:30:07.504Z,3.90
2023-02-24T01:31:07.656Z,3.78
2023-02-24T01:32:07.820Z,3.82
2023-02-24T01:33:07.893Z,3.89
2023-02-24T01:34:07.673Z,3.76
2023-02-24T01:35:07.728Z,3.72
2023-02-24T01:36:07.760Z,3.85
2023-02-24T01:37:07.838Z,3.79
2023-02-24T01:38:07.895Z,3.79
2023-02-24T01:39:07.896Z,3.79
2023-02-24T01:40:07.930Z,3.82
2023-02-24T01:41:07.981Z,3.78
2023-02-24T01:42:08.012Z,3.79
2023-02-24T01:43:08.139Z,3.78
2023-02-24T01:44:08.098Z,3.75
2023-02-24T01:45:08.140Z,3.76
2023-02-24T01:46:08.220Z,3.60
2023-02-24T01:47:08.222Z,3.71
2023-02-24T01:48:08.301Z,3.54
2023-02-24T01:49:08.323Z,3.53
2023-02-24T01:50:08.358Z,3.49
2023-02-24T01:51:08.407Z,3.50
2023-02-24T01:52:08.447Z,3.43
2023-02-24T01:53:08.517Z,3.49
2023-02-24T01:54:08.528Z,3.49
2023-02-24T01:55:08.562Z,3.50
2023-02-24T01:56:08.612Z,3.52
2023-02-24T01:57:08.644Z,3.54
2023-02-24T01:58:08.732Z,3.54
2023-02-24T01:59:08.730Z,3.53
2023-02-24T02:00:08.785Z,3.52
2023-02-24T02:01:08.802Z,3.52
2023-02-24T02:02:08.936Z,3.57
2023-02-24T02:03:08.915Z,3.47
2023-02-24T02:04:08.949Z,3.62
2023-02-24T02:05:09.013Z,3.65
2023-02-24T02:06:09.042Z,3.60
2023-02-24T02:07:10.131Z,3.57
2023-02-24T02:08:09.107Z,3.54
2023-02-24T02:09:09.141Z,3.60
2023-02-24T02:10:09.225Z,3.54
2023-02-24T02:11:09.231Z,3.49
2023-02-24T02:12:09.274Z,3.54
2023-02-24T02:13:09.306Z,3.67
2023-02-24T02:14:09.354Z,3.58
2023-02-24T02:15:09.439Z,3.52
2023-02-24T02:16:09.504Z,3.57
2023-02-24T02:17:09.479Z,3.61
2023-02-24T02:18:09.523Z,3.64
2023-02-24T02:19:09.564Z,3.68
2023-02-24T02:20:09.595Z,3.76
2023-02-24T02:21:09.672Z,3.70
2023-02-24T02:22:09.708Z,3.75
2023-02-24T02:23:09.732Z,3.67
2023-02-24T02:24:09.764Z,3.65
2023-02-24T02:25:09.816Z,3.71
2023-02-24T02:26:09.842Z,3.80
2023-02-24T02:27:09.921Z,3.72
2023-02-24T02:28:09.931Z,3.75
2023-02-24T02:29:10.013Z,3.75
2023-02-24T02:30:10.011Z,3.78
2023-02-24T02:31:10.215Z,3.82
2023-02-24T02:32:10.157Z,3.82
2023-02-24T02:33:10.147Z,3.82
2023-02-24T02:34:10.209Z,3.89
2023-02-24T02:35:10.230Z,3.89
2023-02-24T02:36:10.263Z,3.97
2023-02-24T02:37:10.308Z,4.04
2023-02-24T02:38:10.346Z,3.97
2023-02-24T02:39:10.439Z,3.98
2023-02-24T02:40:10.475Z,4.04
2023-02-24T02:41:10.483Z,4.01
2023-02-24T02:42:10.553Z,4.04
2023-02-24T02:43:10.578Z,4.04
2023-02-24T02:44:10.609Z,4.07
2023-02-24T02:45:10.644Z,4.08
2023-02-24T02:46:10.750Z,4.22
2023-02-24T02:47:10.724Z,4.26
2023-02-24T02:48:10.776Z,4.15
2023-02-24T02:49:10.841Z,4.16
2023-02-24T02:50:10.861Z,4.24
2023-02-24T02:51:10.886Z,4.28
2023-02-24T02:52:10.939Z,4.33
2023-02-24T02:53:11.533Z,4.40
2023-02-24T02:54:11.049Z,4.42
2023-02-24T02:55:11.065Z,4.34
2023-02-24T02:56:11.108Z,4.42
2023-02-24T02:57:11.167Z,4.40
2023-02-24T02:58:11.217Z,4.40
2023-02-24T02:59:11.226Z,4.39
2023-02-24T03:00:11.294Z,4.44
2023-02-24T03:01:11.359Z,4.50
2023-02-24T03:02:11.417Z,4.50
2023-02-24T03:03:11.392Z,4.46
2023-02-24T03:04:11.449Z,4.46
2023-02-24T03:05:11.474Z,4.52
2023-02-24T03:06:11.527Z,4.39
2023-02-24T03:07:11.584Z,4.37
2023-02-24T03:08:11.663Z,4.39
2023-02-24T03:09:11.640Z,4.39
2023-02-24T03:10:11.726Z,4.46
2023-02-24T03:11:11.728Z,4.36
2023-02-24T03:12:11.811Z,4.40
2023-02-24T03:13:11.809Z,4.39
2023-02-24T03:14:11.864Z,4.42
2023-02-24T03:15:11.904Z,4.46
2023-02-24T03:16:11.976Z,4.37
2023-02-24T03:17:12.015Z,4.37
2023-02-24T03:18:12.028Z,4.39
2023-02-24T03:19:12.075Z,4.37
2023-02-24T03:20:12.135Z,4.32
2023-02-24T03:21:12.156Z,4.37
2023-02-24T03:22:12.231Z,4.34
2023-02-24T03:23:12.247Z,4.32
2023-02-24T03:24:12.284Z,4.34
2023-02-24T03:25:12.371Z,4.42
2023-02-24T03:26:12.405Z,4.42
2023-02-24T03:27:12.422Z,4.39
2023-02-24T03:28:12.456Z,4.40
2023-02-24T03:29:12.499Z,4.39
2023-02-24T03:30:12.562Z,4.39
2023-02-24T03:31:12.631Z,4.40
2023-02-24T03:32:12.753Z,4.34
2023-02-24T03:33:12.667Z,4.39
2023-02-24T03:34:12.735Z,4.43
2023-02-24T03:35:12.752Z,4.26
2023-02-24T03:36:12.789Z,4.42
2023-02-24T03:37:12.845Z,4.44
2023-02-24T03:38:12.906Z,4.44
2023-02-24T03:39:12.924Z,4.47
2023-02-24T03:40:12.967Z,4.34
2023-02-24T03:41:13.044Z,4.36
2023-02-24T03:42:13.082Z,4.47
2023-02-24T03:43:14.888Z,4.52
2023-02-24T03:44:13.125Z,4.50
2023-02-24T03:45:13.174Z,4.51
2023-02-24T03:46:13.312Z,4.51
2023-02-24T03:47:13.289Z,4.47
2023-02-24T03:48:13.314Z,4.50
2023-02-24T03:49:13.344Z,4.54
2023-02-24T03:50:13.392Z,4.51
2023-02-24T03:51:13.421Z,4.51
2023-02-24T03:52:13.507Z,4.58
2023-02-24T03:53:14.038Z,4.62
2023-02-24T03:54:13.564Z,4.64
2023-02-24T03:55:13.598Z,4.70
2023-02-24T03:56:13.645Z,4.67
2023-02-24T03:57:13.704Z,4.69
2023-02-24T03:58:13.725Z,4.67
2023-02-24T03:59:13.770Z,4.72
2023-02-24T04:00:13.844Z,4.70
2023-02-24T04:01:13.862Z,4.62
2023-02-24T04:02:13.956Z,4.64
2023-02-24T04:03:13.935Z,4.70
2023-02-24T04:04:13.982Z,4.69
2023-02-24T04:05:14.044Z,4.64
2023-02-24T04:06:14.088Z,4.62
2023-02-24T04:07:14.106Z,4.69
2023-02-24T04:08:14.178Z,4.77
2023-02-24T04:09:14.187Z,4.80
2023-02-24T04:10:14.242Z,4.77
2023-02-24T04:11:14.305Z,4.70
2023-02-24T04:12:14.446Z,4.76
2023-02-24T04:13:14.361Z,4.79
2023-02-24T04:14:14.416Z,4.83
2023-02-24T04:15:14.454Z,4.79
2023-02-24T04:16:14.558Z,4.80
2023-02-24T04:17:14.590Z,4.83
2023-02-24T04:18:14.574Z,4.89
2023-02-24T04:19:14.628Z,4.95
2023-02-24T04:20:14.659Z,4.92
2023-02-24T04:21:14.704Z,4.94
2023-02-24T04:22:14.772Z,4.92
2023-02-24T04:23:14.878Z,4.96
2023-02-24T04:24:14.831Z,4.99
2023-02-24T04:25:14.881Z,4.92
2023-02-24T04:26:14.918Z,4.89
2023-02-24T04:27:14.959Z,4.94
2023-02-24T04:28:15.022Z,4.92
2023-02-24T04:29:15.048Z,4.94
2023-02-24T04:30:15.093Z,4.94
2023-02-24T04:31:15.319Z,4.89
2023-02-24T04:32:15.328Z,4.88
2023-02-24T04:33:15.282Z,4.94
2023-02-24T04:34:15.319Z,4.94
2023-02-24T04:35:15.313Z,4.86
2023-02-24T04:36:15.338Z,4.83
2023-02-24T04:37:15.423Z,4.92
2023-02-24T04:38:15.430Z,4.86
2023-02-24T04:39:15.476Z,4.75
2023-02-24T04:40:15.513Z,4.77
2023-02-24T04:41:15.556Z,4.84
2023-02-24T04:42:15.634Z,4.75
2023-02-24T04:43:15.654Z,4.84
2023-02-24T04:44:15.683Z,4.89
2023-02-24T04:45:15.729Z,4.83
2023-02-24T04:46:15.793Z,4.83
2023-02-24T04:47:15.830Z,4.89
2023-02-24T04:48:15.908Z,4.91
2023-02-24T04:49:15.896Z,4.91
2023-02-24T04:50:15.949Z,4.91
2023-02-24T04:51:16.020Z,4.94
2023-02-24T04:52:16.032Z,4.94
2023-02-24T04:53:16.073Z,4.96
2023-02-24T04:54:16.123Z,4.92
2023-02-24T04:55:16.152Z,4.89
2023-02-24T04:56:16.235Z,4.86
2023-02-24T04:57:16.239Z,4.84
2023-02-24T04:58:16.288Z,4.88
2023-02-24T04:59:16.328Z,4.80
2023-02-24T05:00:16.402Z,4.83
2023-02-24T05:01:16.436Z,4.84
2023-02-24T05:02:19.634Z,4.77
2023-02-24T05:03:16.492Z,4.76
2023-02-24T05:04:16.566Z,4.77
2023-02-24T05:05:16.590Z,4.77
2023-02-24T05:06:16.639Z,4.76
2023-02-24T05:07:16.687Z,4.79
2023-02-24T05:08:16.714Z,4.84
2023-02-24T05:09:16.762Z,4.75
2023-02-24T05:10:16.816Z,4.76
2023-02-24T05:11:16.836Z,4.80
2023-02-24T05:12:16.934Z,4.69
2023-02-24T05:13:16.930Z,4.61
2023-02-24T05:14:17.013Z,4.65
2023-02-24T05:15:17.024Z,4.70
2023-02-24T05:16:17.136Z,4.69
2023-02-24T05:17:17.100Z,4.76
2023-02-24T05:18:17.293Z,4.73
2023-02-24T05:19:17.223Z,4.75
2023-02-24T05:20:17.248Z,4.73
2023-02-24T05:21:17.273Z,4.80
2023-02-24T05:22:17.309Z,4.79
2023-02-24T05:23:17.358Z,4.84
2023-02-24T05:24:17.442Z,4.89
2023-02-24T05:25:17.444Z,4.89
2023-02-24T05:26:18.051Z,4.94
2023-02-24T05:27:17.630Z,4.88
2023-02-24T05:28:17.565Z,4.88
2023-02-24T05:29:17.612Z,4.89
2023-02-24T05:30:17.653Z,4.89
2023-02-24T05:31:17.819Z,4.96
2023-02-24T05:32:17.826Z,4.92
2023-02-24T05:33:17.783Z,4.86
2023-02-24T05:34:17.848Z,4.84
2023-02-24T05:35:17.870Z,4.75
2023-02-24T05:36:17.913Z,4.75
2023-02-24T05:37:17.993Z,4.83
2023-02-24T05:38:18.000Z,4.84
2023-02-24T05:39:18.051Z,4.91
2023-02-24T05:40:18.098Z,4.86
2023-02-24T05:41:18.373Z,4.92
2023-02-24T05:42:18.192Z,5.04
2023-02-24T05:43:18.215Z,5.12
2023-02-24T05:44:18.242Z,5.07
2023-02-24T05:45:18.286Z,5.14
2023-02-24T05:46:18.394Z,5.13
2023-02-24T05:47:18.393Z,5.16
2023-02-24T05:48:18.418Z,5.05
2023-02-24T05:49:18.454Z,5.19
2023-02-24T05:50:18.517Z,5.20
2023-02-24T05:51:18.731Z,5.19
2023-02-24T05:52:18.620Z,5.09
2023-02-24T05:53:19.542Z,5.17
2023-02-24T05:54:18.683Z,5.09
2023-02-24T05:55:18.750Z,5.19
2023-02-24T05:56:18.770Z,5.27
2023-02-24T05:57:18.817Z,5.20
2023-02-24T05:58:18.848Z,5.19
2023-02-24T05:59:18.882Z,5.20
2023-02-24T06:00:18.931Z,5.27
2023-02-24T06:01:19.210Z,5.28
2023-02-24T06:02:19.090Z,5.32
2023-02-24T06:03:19.082Z,5.37
2023-02-24T06:04:19.112Z,5.30
2023-02-24T06:05:20.907Z,5.27
2023-02-24T06:06:19.190Z,5.32
2023-02-24T06:07:19.570Z,5.31
2023-02-24T06:08:19.275Z,5.37
2023-02-24T06:09:19.311Z,5.27
2023-02-24T06:10:19.370Z,5.28
2023-02-24T06:11:19.637Z,5.31
2023-02-24T06:12:19.475Z,5.23
2023-02-24T06:13:19.485Z,5.23
2023-02-24T06:14:19.534Z,5.19
2023-02-24T06:15:19.609Z,5.34
2023-02-24T06:16:19.685Z,5.23
2023-02-24T06:17:19.666Z,5.27
2023-02-24T06:18:20.580Z,5.25
2023-02-24T06:19:19.753Z,5.22
2023-02-24T06:20:19.813Z,5.23
2023-02-24T06:21:20.134Z,5.22
2023-02-24T06:22:19.871Z,5.16
2023-02-24T06:23:19.942Z,5.20
2023-02-24T06:24:19.958Z,5.20
2023-02-24T06:25:20.037Z,5.19
2023-02-24T06:26:20.069Z,5.16
2023-02-24T06:27:20.098Z,5.19
2023-02-24T06:28:20.132Z,5.09
2023-02-24T06:29:20.194Z,5.02
2023-02-24T06:30:20.338Z,5.02
2023-02-24T06:31:20.656Z,4.92
2023-02-24T06:32:20.473Z,4.92
2023-02-24T06:33:20.353Z,4.95
2023-02-24T06:34:20.384Z,4.95
2023-02-24T06:35:20.447Z,4.96
2023-02-24T06:36:20.474Z,5.02
2023-02-24T06:37:20.662Z,5.13
2023-02-24T06:38:20.591Z,5.10
2023-02-24T06:39:20.621Z,5.02
2023-02-24T06:40:20.649Z,5.05
2023-02-24T06:41:20.998Z,5.09
2023-02-24T06:42:20.735Z,5.14
2023-02-24T06:43:20.786Z,5.14
2023-02-24T06:44:20.848Z,5.12
2023-02-24T06:45:20.887Z,5.09
2023-02-24T06:46:20.975Z,5.13
2023-02-24T06:47:20.947Z,5.16
2023-02-24T06:48:20.997Z,5.16
2023-02-24T06:49:21.068Z,5.22
2023-02-24T06:50:21.087Z,5.14
2023-02-24T06:51:21.366Z,5.20
2023-02-24T06:52:21.176Z,5.20
2023-02-24T06:53:21.207Z,5.12
2023-02-24T06:54:21.260Z,5.09
2023-02-24T06:55:21.322Z,5.09
2023-02-24T06:56:21.353Z,5.05
2023-02-24T06:57:21.404Z,5.02
2023-02-24T06:58:21.432Z,5.07
2023-02-24T06:59:21.463Z,5.09
2023-02-24T07:00:21.520Z,5.13
2023-02-24T07:01:21.873Z,5.16
2023-02-24T07:02:21.625Z,5.05
2023-02-24T07:03:21.635Z,5.14
2023-02-24T07:04:21.731Z,5.19
2023-02-24T07:05:21.716Z,5.23
2023-02-24T07:06:21.773Z,5.27
2023-02-24T07:07:21.834Z,5.30
2023-02-24T07:08:21.857Z,5.32
2023-02-24T07:09:21.893Z,5.32
2023-02-24T07:10:22.007Z,5.23
2023-02-24T07:11:22.271Z,5.32
2023-02-24T07:12:22.052Z,5.19
2023-02-24T07:13:22.061Z,5.30
2023-02-24T07:14:22.118Z,5.34
2023-02-24T07:15:22.187Z,5.37
2023-02-24T07:16:22.253Z,5.45
2023-02-24T07:17:22.243Z,5.53
2023-02-24T07:18:22.293Z,5.45
2023-02-24T07:19:22.329Z,5.56
2023-02-24T07:20:22.391Z,5.59
2023-02-24T07:21:22.631Z,5.60
2023-02-24T07:22:22.448Z,5.60
2023-02-24T07:23:22.516Z,5.55
2023-02-24T07:24:22.577Z,5.75
2023-02-24T07:25:22.594Z,5.74
2023-02-24T07:26:22.626Z,5.77
2023-02-24T07:27:23.011Z,5.71
2023-02-24T07:28:22.712Z,5.82
2023-02-24T07:29:22.825Z,5.81
2023-02-24T07:30:22.863Z,5.89
2023-02-24T07:31:23.249Z,5.86
2023-02-24T07:32:23.158Z,5.91
2023-02-24T07:33:22.937Z,5.91
2023-02-24T07:34:23.001Z,5.92
2023-02-24T07:35:23.054Z,6.03
2023-02-24T07:36:23.067Z,5.93
2023-02-24T07:37:23.110Z,6.04
2023-02-24T07:38:23.157Z,6.07
2023-02-24T07:39:23.222Z,6.09
2023-02-24T07:40:23.256Z,6.04
2023-02-24T07:41:23.608Z,6.09
2023-02-24T07:42:23.313Z,6.04
2023-02-24T07:43:23.366Z,6.10
2023-02-24T07:44:23.406Z,6.09
2023-02-24T07:45:23.481Z,6.09
2023-02-24T07:46:23.540Z,6.03
2023-02-24T07:47:23.530Z,6.14
2023-02-24T07:48:23.581Z,6.26
2023-02-24T07:49:23.622Z,6.36
2023-02-24T07:50:23.698Z,6.36
2023-02-24T07:51:23.763Z,6.43
2023-02-24T07:52:23.764Z,6.38
2023-02-24T07:53:24.560Z,6.44
2023-02-24T07:54:23.873Z,6.62
2023-02-24T07:55:23.880Z,6.65
2023-02-24T07:56:23.931Z,6.65
2023-02-24T07:57:23.973Z,6.79
2023-02-24T07:58:24.062Z,6.90
2023-02-24T07:59:24.065Z,6.79
2023-02-24T08:00:24.118Z,6.87
2023-02-24T08:01:24.148Z,6.91
2023-02-24T08:02:24.268Z,6.90
2023-02-24T08:03:24.286Z,7.16
2023-02-24T08:04:24.292Z,7.20
2023-02-24T08:05:24.358Z,7.32
2023-02-24T08:06:24.415Z,7.31
2023-02-24T08:07:25.352Z,7.13
2023-02-24T08:08:24.475Z,7.20
2023-02-24T08:09:25.054Z,7.12
2023-02-24T08:10:24.681Z,7.22
2023-02-24T08:11:24.602Z,7.32
2023-02-24T08:12:24.680Z,7.47
2023-02-24T08:13:24.693Z,7.60
2023-02-24T08:14:24.762Z,7.72
2023-02-24T08:15:24.846Z,7.85
2023-02-24T08:16:24.835Z,7.84
2023-02-24T08:17:24.911Z,7.97
2023-02-24T08:18:24.928Z,8.07
2023-02-24T08:19:24.981Z,8.18
2023-02-24T08:20:25.017Z,8.11
2023-02-24T08:21:25.079Z,8.07
2023-02-24T08:22:25.135Z,8.15
2023-02-24T08:23:25.189Z,8.14
2023-02-24T08:24:25.488Z,7.96
2023-02-24T08:25:25.263Z,7.90
2023-02-24T08:26:25.363Z,7.82
2023-02-24T08:27:25.350Z,7.82
2023-02-24T08:28:25.415Z,7.93
2023-02-24T08:29:25.438Z,8.02
2023-02-24T08:30:25.672Z,8.04
2023-02-24T08:31:25.873Z,7.96
2023-02-24T08:32:25.645Z,7.74
2023-02-24T08:33:25.660Z,7.87
2023-02-24T08:34:25.683Z,7.81
2023-02-24T08:35:25.713Z,7.71
2023-02-24T08:36:25.754Z,7.63
2023-02-24T08:37:25.812Z,7.62
2023-02-24T08:38:26.613Z,7.75
2023-02-24T08:39:25.899Z,7.84
2023-02-24T08:40:25.939Z,8.02
2023-02-24T08:41:25.993Z,8.14
2023-02-24T08:42:26.036Z,8.14
2023-02-24T08:43:26.131Z,8.08
2023-02-24T08:44:26.125Z,8.26
2023-02-24T08:45:26.161Z,8.32
2023-02-24T08:46:26.692Z,8.35
2023-02-24T08:47:26.263Z,8.55
2023-02-24T08:48:26.378Z,8.69
2023-02-24T08:49:26.375Z,8.81
2023-02-24T08:50:26.512Z,8.97
2023-02-24T08:51:26.442Z,8.75
2023-02-24T08:52:26.499Z,8.62
2023-02-24T08:53:26.541Z,8.65
2023-02-24T08:54:26.666Z,8.55
2023-02-24T08:55:26.640Z,8.60
2023-02-24T08:56:26.781Z,8.72
2023-02-24T08:57:26.763Z,8.76
2023-02-24T08:58:26.836Z,8.78
2023-02-24T08:59:26.950Z,8.84
2023-02-24T09:00:27.071Z,8.76
2023-02-24T09:01:26.965Z,8.81
2023-02-24T09:02:27.069Z,8.86
2023-02-24T09:03:27.024Z,8.79
2023-02-24T09:04:27.171Z,8.84
2023-02-24T09:05:27.102Z,8.91
2023-02-24T09:06:27.158Z,9.02
2023-02-24T09:07:27.205Z,9.01
2023-02-24T09:08:27.254Z,9.10
2023-02-24T09:09:27.314Z,9.25
2023-02-24T09:10:27.364Z,9.34
2023-02-24T09:11:27.407Z,9.53
2023-02-24T09:12:27.471Z,9.61
2023-02-24T09:13:27.501Z,9.56
2023-02-24T09:14:28.778Z,9.57
2023-02-24T09:15:27.615Z,9.49
2023-02-24T09:16:28.639Z,9.32
2023-02-24T09:17:29.527Z,9.34
2023-02-24T09:18:27.725Z,9.21
2023-02-24T09:19:27.779Z,9.21
2023-02-24T09:20:27.835Z,9.32
2023-02-24T09:21:27.867Z,9.38
2023-02-24T09:22:27.938Z,9.46
2023-02-24T09:23:27.959Z,9.81
2023-02-24T09:24:28.765Z,9.86
2023-02-24T09:25:28.065Z,10.00
2023-02-24T09:26:28.079Z,10.12
2023-02-24T09:27:28.222Z,10.12
2023-02-24T09:28:28.217Z,10.32
2023-02-24T09:29:28.257Z,10.44
2023-02-24T09:30:28.309Z,10.52
2023-02-24T09:31:28.425Z,10.58
2023-02-24T09:32:28.550Z,10.47
2023-02-24T09:33:28.501Z,10.33
2023-02-24T09:34:28.475Z,10.28
2023-02-24T09:35:28.558Z,10.22
2023-02-24T09:36:28.571Z,10.12
2023-02-24T09:37:28.621Z,10.03
2023-02-24T09:38:29.584Z,9.81
2023-02-24T09:39:28.717Z,9.88
2023-02-24T09:40:28.787Z,9.83
2023-02-24T09:41:28.850Z,9.83
2023-02-24T09:42:28.852Z,9.88
2023-02-24T09:43:28.921Z,9.79
2023-02-24T09:44:28.985Z,9.85
2023-02-24T09:45:29.162Z,9.82
2023-02-24T09:46:29.160Z,9.91
2023-02-24T09:47:29.091Z,9.93
2023-02-24T09:48:29.155Z,10.00
2023-02-24T09:49:29.183Z,10.01
2023-02-24T09:50:59.070Z,10.18
2023-02-24T09:51:29.291Z,10.25
2023-02-24T09:52:29.344Z,10.52
2023-02-24T09:53:29.375Z,10.63
2023-02-24T09:54:29.433Z,10.60
2023-02-24T09:55:29.508Z,10.73
2023-02-24T09:56:29.537Z,10.80
2023-02-24T09:57:29.585Z,10.84
2023-02-24T09:58:42.805Z,10.78
2023-02-24T09:59:29.694Z,10.94
2023-02-24T10:00:29.727Z,10.91
2023-02-24T10:01:29.812Z,11.02
2023-02-24T10:02:29.885Z,10.91
2023-02-24T10:03:29.867Z,10.84
2023-02-24T10:04:29.961Z,10.89
2023-02-24T10:05:29.952Z,10.78
2023-02-24T10:06:30.015Z,10.91
2023-02-24T10:07:30.057Z,10.94
2023-02-24T10:08:30.110Z,10.92
2023-02-24T10:09:30.183Z,10.95
2023-02-24T10:10:30.208Z,10.94
2023-02-24T10:11:30.247Z,11.17
2023-02-24T10:12:30.310Z,11.13
2023-02-24T10:13:30.483Z,11.25
2023-02-24T10:14:42.684Z,11.24
2023-02-24T10:15:30.474Z,11.25
2023-02-24T10:16:30.508Z,11.36
2023-02-24T10:17:30.569Z,11.35
2023-02-24T10:18:30.622Z,11.06
2023-02-24T10:19:30.645Z,11.06
2023-02-24T10:20:30.719Z,11.13
2023-02-24T10:21:30.942Z,11.24
2023-02-24T10:22:30.797Z,11.36
2023-02-24T10:23:30.861Z,11.31
2023-02-24T10:24:30.873Z,11.29
2023-02-24T10:25:30.990Z,11.36
2023-02-24T10:26:30.969Z,11.29
2023-02-24T10:27:31.053Z,11.36
2023-02-24T10:28:31.068Z,11.29
2023-02-24T10:29:31.126Z,11.34
2023-02-24T10:30:31.252Z,11.03
2023-02-24T10:31:31.319Z,10.66
2023-02-24T10:32:31.321Z,10.51
2023-02-24T10:33:31.351Z,10.28
2023-02-24T10:34:31.354Z,10.24
2023-02-24T10:35:31.413Z,10.24
2023-02-24T10:36:31.455Z,10.43
2023-02-24T10:37:31.537Z,10.52
2023-02-24T10:38:31.552Z,10.70
2023-02-24T10:39:31.608Z,10.73
2023-02-24T10:40:31.671Z,11.03
2023-02-24T10:41:31.730Z,10.76
2023-02-24T10:42:31.866Z,10.66
2023-02-24T10:43:31.840Z,10.70
2023-02-24T10:44:31.852Z,10.86
2023-02-24T10:45:34.863Z,10.96
2023-02-24T10:46:40.551Z,11.21
2023-02-24T10:47:32.004Z,11.29
2023-02-24T10:48:41.434Z,11.56
2023-02-24T10:49:32.088Z,12.02
2023-02-24T10:50:32.526Z,12.31
2023-02-24T10:51:32.181Z,12.38
2023-02-24T10:52:32.231Z,12.69
2023-02-24T10:53:32.328Z,12.71
2023-02-24T10:54:32.327Z,12.82
2023-02-24T10:55:32.369Z,12.48
2023-02-24T10:56:32.424Z,12.57
2023-02-24T10:57:32.481Z,12.70
2023-02-24T10:58:32.554Z,12.77
2023-02-24T10:59:32.688Z,12.81
2023-02-24T11:00:32.630Z,12.44
2023-02-24T11:01:32.721Z,12.30
2023-02-24T11:02:32.895Z,12.26
2023-02-24T11:03:33.076Z,12.39
2023-02-24T11:04:32.825Z,12.44
2023-02-24T11:05:32.855Z,12.39
2023-02-24T11:06:32.920Z,12.42
2023-02-24T11:07:32.959Z,12.70
2023-02-24T11:08:33.066Z,12.81
2023-02-24T11:09:33.083Z,12.85
2023-02-24T11:10:33.172Z,12.77
2023-02-24T11:11:33.188Z,12.69
2023-02-24T11:12:33.216Z,12.70
2023-02-24T11:13:33.259Z,12.71
2023-02-24T11:14:33.317Z,12.78
2023-02-24T11:15:33.393Z,12.79
2023-02-24T11:16:33.438Z,12.84
2023-02-24T11:17:33.490Z,12.77
2023-02-24T11:18:33.538Z,12.59
2023-02-24T11:19:33.558Z,12.74
2023-02-24T11:20:46.505Z,12.77
2023-02-24T11:21:33.704Z,13.11
2023-02-24T11:22:33.702Z,13.40
2023-02-24T11:23:33.760Z,13.52
2023-02-24T11:24:33.870Z,13.20
2023-02-24T11:25:33.887Z,12.89
2023-02-24T11:26:33.916Z,12.82
2023-02-24T11:27:33.980Z,12.77
2023-02-24T11:28:34.033Z,12.69
2023-02-24T11:29:34.100Z,12.60
2023-02-24T11:30:34.233Z,12.52
2023-02-24T11:31:34.306Z,12.41
2023-02-24T11:32:34.326Z,12.41
2023-02-24T11:33:34.282Z,12.27
2023-02-24T11:34:34.300Z,12.21
2023-02-24T11:35:34.404Z,12.04
2023-02-24T11:36:34.426Z,11.89
2023-02-24T11:37:34.472Z,11.75
2023-02-24T11:38:34.529Z,11.83
2023-02-24T11:39:34.565Z,11.80
2023-02-24T11:40:34.642Z,11.96
2023-02-24T11:41:34.651Z,12.06
2023-02-24T11:42:34.705Z,11.96
2023-02-24T11:43:34.836Z,11.72
2023-02-24T11:44:34.843Z,11.65
2023-02-24T11:45:34.847Z,11.54
2023-02-24T11:46:34.952Z,11.50
2023-02-24T11:47:34.942Z,11.43
2023-02-24T11:48:35.018Z,11.41
2023-02-24T11:49:35.050Z,11.49
2023-02-24T11:50:35.142Z,11.47
2023-02-24T11:51:35.136Z,11.47
2023-02-24T11:52:35.189Z,11.57
2023-02-24T11:53:35.281Z,11.61
2023-02-24T11:54:35.352Z,11.70
2023-02-24T11:55:35.327Z,11.75
2023-02-24T11:56:35.438Z,11.82
2023-02-24T11:57:35.448Z,11.86
2023-02-24T11:58:35.588Z,11.94
2023-02-24T11:59:35.525Z,11.96
2023-02-24T12:00:35.574Z,11.99
2023-02-24T12:01:35.655Z,11.87
2023-02-24T12:02:35.814Z,11.93
2023-02-24T12:03:35.731Z,11.93
2023-02-24T12:04:35.775Z,12.04
2023-02-24T12:05:35.895Z,11.97
2023-02-24T12:06:35.932Z,11.83
2023-02-24T12:07:35.979Z,11.86
2023-02-24T12:08:35.990Z,11.83
2023-02-24T12:09:35.999Z,11.85
2023-02-24T12:10:36.083Z,11.86
2023-02-24T12:11:36.146Z,11.96
2023-02-24T12:12:36.150Z,11.94
2023-02-24T12:13:36.194Z,11.93
2023-02-24T12:14:36.247Z,11.89
2023-02-24T12:15:36.307Z,11.83
2023-02-24T12:16:36.459Z,11.74
2023-02-24T12:17:36.394Z,11.78
2023-02-24T12:18:36.468Z,11.82
2023-02-24T12:19:36.489Z,11.77
2023-02-24T12:20:36.531Z,11.77
2023-02-24T12:21:36.607Z,11.89
2023-02-24T12:22:36.626Z,11.96
2023-02-24T12:23:36.716Z,11.94
2023-02-24T12:24:36.734Z,11.90
2023-02-24T12:25:36.773Z,11.93
2023-02-24T12:26:36.819Z,11.96
2023-02-24T12:27:36.878Z,11.94
2023-02-24T12:28:36.943Z,12.02
2023-02-24T12:29:36.992Z,11.97
2023-02-24T12:30:38.909Z,11.93
2023-02-24T12:31:37.106Z,11.94
2023-02-24T12:32:37.899Z,11.97
2023-02-24T12:33:37.162Z,12.02
2023-02-24T12:34:37.238Z,12.06
2023-02-24T12:35:37.294Z,12.13
2023-02-24T12:36:37.301Z,12.09
2023-02-24T12:37:37.374Z,12.13
2023-02-24T12:38:37.423Z,12.21
2023-02-24T12:39:37.449Z,12.27
2023-02-24T12:40:37.573Z,12.27
2023-02-24T12:41:37.566Z,12.23
2023-02-24T12:42:37.580Z,12.12
2023-02-24T12:43:37.679Z,12.21
2023-02-24T12:44:37.700Z,12.24
2023-02-24T12:45:37.737Z,12.38
2023-02-24T12:46:37.810Z,12.52
2023-02-24T12:47:37.828Z,12.11
2023-02-24T12:48:37.923Z,11.39
2023-02-24T12:49:37.935Z,11.44
2023-02-24T12:50:37.980Z,11.36
2023-02-24T12:51:38.047Z,11.29
2023-02-24T12:52:38.077Z,10.91
2023-02-24T12:53:38.134Z,10.18
2023-02-24T12:54:38.173Z,9.78
2023-02-24T12:55:38.246Z,9.53
2023-02-24T12:56:38.273Z,9.31
2023-02-24T12:57:38.311Z,9.46
2023-02-24T12:58:38.414Z,9.23
2023-02-24T12:59:38.408Z,8.94
2023-02-24T13:00:38.499Z,8.91
2023-02-24T13:01:38.575Z,8.76
2023-02-24T13:02:38.670Z,8.62
2023-02-24T13:03:38.594Z,8.75
2023-02-24T13:04:38.652Z,8.90
2023-02-24T13:05:38.723Z,9.21
2023-02-24T13:06:38.747Z,9.15
2023-02-24T13:07:38.818Z,9.15
2023-02-24T13:08:38.852Z,8.83
2023-02-24T13:09:38.888Z,8.87
2023-02-24T13:10:38.968Z,8.94
2023-02-24T13:11:38.984Z,8.47
2023-02-24T13:12:39.035Z,8.53
2023-02-24T13:13:39.067Z,8.71
2023-02-24T13:14:39.140Z,8.88
2023-02-24T13:15:39.175Z,9.09
2023-02-24T13:16:39.303Z,9.18
2023-02-24T13:17:39.268Z,9.18
2023-02-24T13:18:39.310Z,9.28
2023-02-24T13:19:39.388Z,9.46
2023-02-24T13:20:39.398Z,9.21
2023-02-24T13:21:39.628Z,9.24
2023-02-24T13:22:39.491Z,9.48
2023-02-24T13:23:39.550Z,9.71
2023-02-24T13:24:39.619Z,9.94
2023-02-24T13:25:39.684Z,10.04
2023-02-24T13:26:39.808Z,10.14
2023-02-24T13:27:39.738Z,10.07
2023-02-24T13:28:39.804Z,9.81
2023-02-24T13:29:39.834Z,9.73
2023-02-24T13:30:39.908Z,9.71